createdAt,value
2022-09-15T03:38:42.644Z,3.60
2022-09-15T03:44:04.195Z,3.85
2022-09-15T03:49:25.753Z,3.50
2022-09-15T03:54:48.707Z,3.95
2022-09-15T04:00:10.404Z,3.78
2022-09-15T04:05:31.159Z,3.50
2022-09-15T04:10:52.176Z,4.55
2022-09-15T04:21:34.904Z,3.80
2022-09-15T04:26:55.653Z,3.78
2022-09-15T04:32:16.540Z,3.40
2022-09-15T04:37:39.286Z,3.80
2022-09-15T04:43:00.194Z,3.70
2022-09-15T04:48:22.326Z,3.47
2022-09-15T04:53:43.761Z,3.90
2022-09-15T04:59:04.734Z,3.40
2022-09-15T05:04:25.736Z,3.50
2022-09-15T05:09:46.877Z,3.47
2022-09-15T05:15:08.242Z,3.33
2022-09-15T05:20:29.789Z,4.40
2022-09-15T05:25:56.014Z,3.30
2022-09-15T05:31:19.962Z,3.50
2022-09-15T05:36:40.731Z,3.35
2022-09-15T05:42:01.667Z,3.55
2022-09-15T05:47:22.796Z,3.53
2022-09-15T05:52:43.759Z,3.58
2022-09-15T05:58:04.502Z,3.00
2022-09-15T06:08:58.081Z,3.30
2022-09-15T06:14:19.970Z,3.55
2022-09-15T06:19:40.683Z,3.15
2022-09-15T06:25:01.585Z,3.05
2022-09-15T06:35:43.278Z,3.17
2022-09-15T06:41:04.714Z,3.20
2022-09-15T06:46:26.661Z,2.40
2022-09-15T06:51:48.250Z,3.00
2022-09-15T06:57:09.152Z,3.40
2022-09-15T07:07:50.707Z,2.72
2022-09-15T07:18:32.993Z,2.42
2022-09-15T07:23:57.097Z,2.75
2022-09-15T07:29:18.022Z,2.67
2022-09-15T07:40:00.058Z,2.33
2022-09-15T07:45:20.655Z,2.08
2022-09-15T07:56:01.824Z,2.08
2022-09-15T08:01:22.820Z,1.58
2022-09-15T08:06:44.596Z,2.35
2022-09-15T08:12:06.801Z,1.75
2022-09-15T08:17:28.213Z,1.88
2022-09-15T08:22:48.603Z,1.85
2022-09-15T08:28:09.868Z,1.85
2022-09-15T08:33:30.770Z,1.40
2022-09-15T08:38:51.580Z,1.80
2022-09-15T08:49:52.533Z,1.50
2022-09-15T08:55:21.045Z,1.23
2022-09-15T09:00:43.935Z,1.70
2022-09-15T09:06:39.019Z,1.30
2022-09-15T09:12:18.328Z,1.33
2022-09-15T09:17:57.433Z,1.30
2022-09-15T09:23:24.185Z,1.30
2022-09-15T09:28:58.855Z,1.30
2022-09-15T09:34:31.117Z,1.50
2022-09-15T09:39:52.183Z,1.60
2022-09-15T09:45:15.700Z,1.50
2022-09-15T09:50:42.829Z,1.48
2022-09-15T09:56:39.934Z,1.85
2022-09-15T10:02:18.868Z,1.52
2022-09-15T10:07:46.300Z,1.67
2022-09-15T10:13:06.801Z,1.92
2022-09-15T10:18:30.818Z,1.60
2022-09-15T10:23:51.719Z,1.42
2022-09-15T10:29:18.061Z,1.52
2022-09-15T10:34:39.160Z,1.65
2022-09-15T10:47:09.314Z,1.30
2022-09-15T10:53:07.671Z,1.63
2022-09-15T10:58:52.709Z,1.27
2022-09-15T11:04:32.533Z,1.42
2022-09-15T11:10:15.523Z,1.80
2022-09-15T11:15:49.851Z,1.35
2022-09-15T11:21:34.326Z,1.40
2022-09-15T11:26:57.611Z,1.13
2022-09-15T11:32:25.985Z,1.55
2022-09-15T11:37:50.709Z,1.60
2022-09-15T11:43:20.481Z,1.20
2022-09-15T11:49:02.767Z,1.20
2022-09-15T11:54:37.607Z,1.42
2022-09-15T12:00:14.610Z,1.02
2022-09-15T12:05:55.926Z,1.20
2022-09-15T12:11:22.579Z,1.33
2022-09-15T12:16:44.630Z,1.35
2022-09-15T12:22:14.760Z,1.20
2022-09-15T12:27:35.514Z,0.88
2022-09-15T12:32:56.632Z,1.00
2022-09-15T12:38:17.214Z,1.15
2022-09-15T12:43:38.002Z,0.93
2022-09-15T12:49:03.068Z,0.73
2022-09-15T12:54:29.643Z,0.93
2022-09-15T13:00:34.115Z,1.00
2022-09-15T13:06:14.978Z,1.00
2022-09-15T13:17:17.237Z,1.00
2022-09-15T13:22:43.879Z,1.10
2022-09-15T13:28:05.268Z,1.00
2022-09-15T13:39:49.888Z,0.80
2022-09-15T13:45:14.013Z,1.03
2022-09-15T13:50:41.995Z,0.98
2022-09-15T13:56:09.578Z,1.58
2022-09-15T14:01:34.823Z,0.90
2022-09-15T14:07:00.916Z,0.77
2022-09-15T14:12:22.683Z,1.08
2022-09-15T14:17:46.744Z,1.10
2022-09-15T14:23:16.099Z,0.80
2022-09-15T14:28:37.462Z,1.02
2022-09-15T14:33:59.225Z,1.08
2022-09-15T14:39:22.234Z,2.17
2022-09-15T14:50:26.350Z,1.25
2022-09-15T14:55:55.737Z,1.10
2022-09-15T15:01:25.976Z,1.10
2022-09-15T15:07:13.473Z,1.60
2022-09-15T15:12:50.843Z,1.30
2022-09-15T15:18:32.254Z,1.17
2022-09-15T15:23:53.830Z,1.35
2022-09-15T15:29:44.098Z,1.85
2022-09-15T15:35:05.238Z,1.00
2022-09-15T15:40:27.056Z,1.10
2022-09-15T15:46:03.365Z,1.02
2022-09-15T15:51:24.261Z,0.80
2022-09-15T15:56:45.219Z,1.20
2022-09-15T16:02:10.795Z,0.60
2022-09-15T16:07:33.497Z,0.77
2022-09-15T16:12:55.260Z,0.43
2022-09-15T16:18:16.611Z,0.60
2022-09-15T16:23:37.762Z,1.00
2022-09-15T16:28:58.609Z,0.70
2022-09-15T16:34:19.628Z,0.65
2022-09-15T16:45:02.959Z,0.73
2022-09-15T16:50:23.667Z,0.85
2022-09-15T16:55:52.171Z,0.80
2022-09-15T17:01:18.975Z,0.93
2022-09-15T17:06:40.112Z,0.40
2022-09-15T17:12:00.967Z,0.63
2022-09-15T17:17:25.505Z,0.70
2022-09-15T17:22:48.125Z,1.40
2022-09-15T17:28:08.800Z,1.20
2022-09-15T17:33:31.627Z,0.90
2022-09-15T17:38:52.947Z,0.80
2022-09-15T17:44:14.196Z,0.95
2022-09-15T17:49:35.099Z,0.80
2022-09-15T17:54:56.362Z,0.90
2022-09-15T18:00:19.952Z,0.80
2022-09-15T18:05:40.862Z,1.25
2022-09-15T18:11:02.512Z,0.80
2022-09-15T18:16:23.534Z,0.95
2022-09-15T18:27:06.292Z,0.67
2022-09-15T18:32:27.342Z,0.98
2022-09-15T18:37:53.667Z,0.80
2022-09-15T18:43:15.478Z,0.77
2022-09-15T18:48:36.110Z,0.95
2022-09-15T18:53:57.482Z,0.50
2022-09-15T18:59:18.350Z,0.90
2022-09-15T19:04:40.722Z,0.70
2022-09-15T19:10:01.675Z,0.80
2022-09-15T19:20:45.937Z,0.60
2022-09-15T19:26:11.920Z,0.63
2022-09-15T19:31:32.824Z,0.73
2022-09-15T19:47:41.329Z,1.05
2022-09-15T19:53:02.374Z,0.90
2022-09-15T20:03:44.314Z,0.80
2022-09-15T20:09:06.352Z,0.68
2022-09-15T20:14:27.451Z,0.80
2022-09-15T20:19:48.344Z,1.10
2022-09-15T20:25:09.143Z,0.90
2022-09-15T20:35:50.605Z,1.02
2022-09-15T20:46:33.621Z,0.93
2022-09-15T20:51:54.451Z,1.38
2022-09-15T21:02:35.731Z,0.93
2022-09-15T21:07:56.550Z,0.77
2022-09-15T21:13:19.129Z,0.65
2022-09-15T21:18:41.984Z,1.02
2022-09-15T21:24:06.205Z,1.10
2022-09-15T21:29:28.483Z,0.80
2022-09-15T21:34:49.400Z,1.08
2022-09-15T21:40:10.290Z,0.95
